Lakeville, MN

4:08 PM CDT on June 27, 2017 (GMT -0500)
Airlake

Weather History for KLVN - September, 2012

Change the Weather History Date:

Wednesday, September 26, 2012

  Actual Average Record
Temperature  
Mean Temperature 46 °F -  
Max Temperature 62 °F 68 °F 87 °F (1974)
Min Temperature 30 °F 44 °F 26 °F (1980)
Degree Days  
Heating Degree Days 19    
Moisture  
Dew Point 35 °F    
Average Humidity 68    
Maximum Humidity 100    
Minimum Humidity 34    
Precipitation  
Precipitation 0.00 in - - ()
Sea Level Pressure  
Sea Level Pressure 30.09 in    
Wind  
Wind Speed 2 mph (NNE)    
Max Wind Speed 10 mph    
Max Gust Speed 21 mph    
Visibility 9 miles    
Events      
Averages and records for this station are not official NWS values.
T = Trace of Precipitation, MM = Missing Value Source: NWS Daily Summary

Daily Weather History Graph

Daily Weather History Graph

Search for Another Location

Airport or City:

Trip Planner

Search our weather history database for the weather conditions in past years. The results will help you decide how hot, cold, wet, or windy it might be!

Date:

Astronomy

Sep. 26, 2012 Rise Set
Actual Time 7:05 AM CDT 7:01 PM CDT
Civil Twilight 6:36 AM CDT 7:30 PM CDT
Nautical Twilight 6:02 AM CDT 8:04 PM CDT
Astronomical Twilight 5:27 AM CDT 8:39 PM CDT
Moon 5:07 PM CDT (9/26) 3:24 AM CDT (9/26)
Length of Visible Light 12h 54m
Length of Day
11h 56m
Waxing Gibbous, 88% of the Moon is Illuminated
Sep 26
Waxing Gibbous
Sep 29
Full
Oct 8
Last Quarter
Oct 15
New
Oct 21
First Quarter

Hourly Weather History & Observations

Time (CDT) Temp. Windchill Dew Point Humidity Pressure Visibility Wind Dir Wind Speed Gust Speed Precip Events Conditions
12:14 AM 37.4 °F - 35.6 °F 93% 29.95 in 10.0 mi Calm Calm - N/A   Clear
12:33 AM 37.4 °F - 35.6 °F 93% 29.94 in 10.0 mi Calm Calm - N/A   Clear
12:54 AM 37.4 °F - 35.6 °F 93% 29.95 in 10.0 mi Calm Calm - N/A   Clear
1:14 AM 37.4 °F - 35.6 °F 93% 29.95 in 10.0 mi Calm Calm - N/A   Clear
1:33 AM 37.4 °F - 35.6 °F 93% 29.96 in 10.0 mi Calm Calm - N/A   Clear
1:54 AM 35.6 °F - 33.8 °F 93% 29.97 in 10.0 mi Calm Calm - N/A   Clear
2:14 AM 35.6 °F - 33.8 °F 93% 29.98 in 10.0 mi Calm Calm - N/A   Clear
2:33 AM 35.6 °F - 35.6 °F 100% 30.00 in 10.0 mi Calm Calm - N/A   Clear
2:54 AM 33.8 °F - 33.8 °F 100% 29.99 in 10.0 mi Calm Calm - N/A   Clear
3:14 AM 33.8 °F 30.8 °F 32.0 °F 93% 29.99 in 10.0 mi NNW 3.5 mph - N/A   Clear
3:33 AM 35.6 °F - 33.8 °F 93% 30.00 in 10.0 mi Calm Calm - N/A   Clear
3:54 AM 33.8 °F - 33.8 °F 100% 30.00 in 10.0 mi Calm Calm - N/A   Clear
4:14 AM 33.8 °F - 33.8 °F 100% 30.02 in 10.0 mi Calm Calm - N/A   Clear
4:33 AM 33.8 °F - 32.0 °F 93% 30.02 in 10.0 mi Calm Calm - N/A   Clear
4:54 AM 33.8 °F - 32.0 °F 93% 30.02 in 10.0 mi Calm Calm - N/A   Clear
5:14 AM 32.0 °F - 32.0 °F 100% 30.02 in 10.0 mi Calm Calm - N/A   Clear
5:33 AM 33.8 °F - 32.0 °F 93% 30.03 in 10.0 mi Calm Calm - N/A   Clear
5:54 AM 32.0 °F - 30.2 °F 93% 30.03 in 10.0 mi Calm Calm - N/A   Clear
6:14 AM 32.0 °F - 30.2 °F 93% 30.03 in 7.0 mi Calm Calm - N/A   Clear
6:33 AM 30.2 °F - 28.4 °F 93% 30.04 in 7.0 mi Calm Calm - N/A   Clear
6:54 AM 33.8 °F - 32.0 °F 93% 30.04 in 10.0 mi Calm Calm - N/A   Clear
7:34 AM 32.0 °F - 30.2 °F 93% 30.06 in 5.0 mi Calm Calm - N/A   Clear
7:54 AM 35.6 °F - 33.8 °F 93% 30.07 in 4.0 mi Calm Calm - N/A   Clear
8:13 AM 37.4 °F - 35.6 °F 93% 30.07 in 7.0 mi Calm Calm - N/A   Clear
8:34 AM 41.0 °F - 37.4 °F 87% 30.08 in 10.0 mi Calm Calm - N/A   Clear
8:54 AM 42.8 °F - 37.4 °F 81% 30.08 in 10.0 mi Calm Calm - N/A   Clear
9:13 AM 44.6 °F - 37.4 °F 76% 30.09 in 2.0 mi Calm Calm - N/A   Haze
9:34 AM 46.4 °F 45.2 °F 39.2 °F 76% 30.10 in 10.0 mi East 3.5 mph - N/A   Clear
9:54 AM 50.0 °F - 39.2 °F 66% 30.10 in 10.0 mi ESE 4.6 mph - N/A   Clear
10:13 AM 51.8 °F - 39.2 °F 62% 30.10 in 10.0 mi East 4.6 mph - N/A   Clear
10:34 AM 55.4 °F - 37.4 °F 51% 30.11 in 10.0 mi NE 4.6 mph - N/A   Clear
10:53 AM 55.4 °F - 39.2 °F 54% 30.11 in 10.0 mi NE 5.8 mph - N/A   Clear
11:14 AM 57.2 °F - 37.4 °F 48% 30.11 in 10.0 mi NNE 9.2 mph - N/A   Clear
11:34 AM 57.2 °F - 37.4 °F 48% 30.11 in 10.0 mi NNE 6.9 mph - N/A   Clear
11:53 AM 57.2 °F - 37.4 °F 48% 30.12 in 10.0 mi NE 6.9 mph - N/A   Clear
12:14 PM 59.0 °F - 37.4 °F 45% 30.12 in 10.0 mi NNE 8.1 mph - N/A   Clear
12:33 PM 59.0 °F - 35.6 °F 42% 30.12 in 10.0 mi NE 5.8 mph - N/A   Clear
12:54 PM 60.8 °F - 35.6 °F 39% 30.12 in 10.0 mi North 5.8 mph - N/A   Clear
1:14 PM 60.8 °F - 35.6 °F 39% 30.11 in 10.0 mi North 8.1 mph - N/A   Clear
1:33 PM 60.8 °F - 35.6 °F 39% 30.11 in 10.0 mi Calm Calm - N/A   Clear
1:54 PM 60.8 °F - 35.6 °F 39% 30.11 in 10.0 mi North 4.6 mph 20.7 mph N/A   Clear
2:14 PM 60.8 °F - 35.6 °F 39% 30.11 in 10.0 mi NNE 6.9 mph - N/A   Clear
2:33 PM 62.6 °F - 33.8 °F 34% 30.11 in 10.0 mi North 6.9 mph - N/A   Clear
2:54 PM 62.6 °F - 35.6 °F 37% 30.11 in 3.0 mi North 9.2 mph - N/A   Haze
3:13 PM 62.6 °F - 35.6 °F 37% 30.11 in 10.0 mi NNE 4.6 mph - N/A   Clear
3:34 PM 62.6 °F - 35.6 °F 37% 30.11 in 4.0 mi NE 4.6 mph - N/A   Haze
3:53 PM 62.6 °F - 33.8 °F 34% 30.11 in 10.0 mi NNW 6.9 mph - N/A   Clear
4:13 PM 62.6 °F - 33.8 °F 34% 30.12 in 10.0 mi NNW 5.8 mph - N/A   Clear
4:34 PM 62.6 °F - 35.6 °F 37% 30.12 in 10.0 mi NNE 6.9 mph - N/A   Clear
5:13 PM 60.8 °F - 33.8 °F 36% 30.12 in 10.0 mi NNW 3.5 mph - N/A   Clear
5:34 PM 60.8 °F - 33.8 °F 36% 30.13 in 10.0 mi NNE 10.4 mph - N/A   Clear
5:53 PM 60.8 °F - 33.8 °F 36% 30.13 in 10.0 mi North 6.9 mph - N/A   Clear
6:13 PM 59.0 °F - 33.8 °F 39% 30.14 in 10.0 mi NNE 5.8 mph - N/A   Clear
6:34 PM 57.2 °F - 33.8 °F 41% 30.14 in 10.0 mi NNE 5.8 mph - N/A   Clear
6:53 PM 55.4 °F - 33.8 °F 44% 30.15 in 10.0 mi Calm Calm - N/A   Clear
7:13 PM 53.6 °F - 35.6 °F 51% 30.16 in 10.0 mi North 3.5 mph - N/A   Clear
7:34 PM 51.8 °F - 33.8 °F 50% 30.16 in 10.0 mi North 3.5 mph - N/A   Clear
7:54 PM 50.0 °F - 33.8 °F 54% 30.17 in 10.0 mi North 3.5 mph - N/A   Clear
8:34 PM 51.8 °F - 35.6 °F 54% 30.18 in 10.0 mi North 3.5 mph - N/A   Clear
8:54 PM 48.2 °F - 35.6 °F 62% 30.18 in 10.0 mi North 3.5 mph - N/A   Clear
9:13 PM 48.2 °F - 35.6 °F 62% 30.19 in 10.0 mi Calm Calm - N/A   Clear
9:34 PM 46.4 °F - 35.6 °F 66% 30.19 in 10.0 mi Calm Calm - N/A   Clear
9:53 PM 44.6 °F - 35.6 °F 71% 30.20 in 10.0 mi Calm Calm - N/A   Clear
10:14 PM 44.6 °F - 35.6 °F 71% 30.20 in 10.0 mi Calm Calm - N/A   Clear
10:34 PM 37.4 °F - 33.8 °F 87% 30.21 in 7.0 mi Calm Calm - N/A   Clear
10:53 PM 39.2 °F - 35.6 °F 87% 30.21 in 7.0 mi Calm Calm - N/A   Clear
11:14 PM 37.4 °F - 33.8 °F 87% 30.21 in 10.0 mi Calm Calm - N/A   Clear
11:34 PM 35.6 °F - 33.8 °F 93% 30.21 in 10.0 mi Calm Calm - N/A   Clear
11:53 PM 35.6 °F - 33.8 °F 93% 30.21 in 10.0 mi Calm Calm - N/A   Clear